Time,TemperatureF,DewpointF,PressureIn,WindDirection,WindDirectionDegrees,WindSpeedMPH,WindSpeedGustMPH,Humidity,HourlyPrecipIn,Conditions,Clouds,dailyrainin,SoftwareType,DateUTC
2013-07-06 00:00:00,69.6,68.7,30.16,West,270,0.0,2.3,97,0.00,SKC,,0.00,WeatherDisplay:10.37,2013-07-06 04:00:00,
2013-07-06 00:01:00,69.8,68.9,30.16,West,270,0.0,2.3,97,0.00,SKC,,0.00,WeatherDisplay:10.37,2013-07-06 04:01:00,
2013-07-06 00:02:00,69.8,68.9,30.16,West,270,0.0,0.0,97,0.00,SKC,,0.00,WeatherDisplay:10.37,2013-07-06 04:02:00,
2013-07-06 00:04:00,70.0,69.1,30.16,West,270,0.0,0.0,97,0.00,SKC,,0.00,WeatherDisplay:10.37,2013-07-06 04:04:00,
2013-07-06 00:05:00,70.0,69.1,30.16,West,272,0.0,0.0,97,0.00,SKC,SKC,0.00,WeatherDisplay:10.37,2013-07-06 04:05:00,
2013-07-06 00:08:00,70.0,69.1,30.16,West,270,0.0,0.0,97,0.00,SKC,,0.00,WeatherDisplay:10.37,2013-07-06 04:08:00,
2013-07-06 00:13:00,70.0,69.1,30.16,West,270,0.0,0.0,97,0.00,SKC,,0.00,WeatherDisplay:10.37,2013-07-06 04:13:00,
2013-07-06 00:18:00,70.2,69.3,30.17,West,270,0.0,0.0,97,0.00,SKC,,0.00,WeatherDisplay:10.37,2013-07-06 04:18:00,
2013-07-06 00:23:00,70.2,69.3,30.17,West,270,0.0,0.0,97,0.00,SKC,,0.00,WeatherDisplay:10.37,2013-07-06 04:23:00,
2013-07-06 00:28:00,70.3,69.4,30.17,West,270,0.0,0.0,97,0.00,SKC,,0.00,WeatherDisplay:10.37,2013-07-06 04:28:00,
2013-07-06 00:33:00,70.3,69.4,30.17,West,270,0.0,0.0,97,0.00,SKC,,0.00,WeatherDisplay:10.37,2013-07-06 04:33:00,
2013-07-06 00:38:00,70.5,69.6,30.17,West,270,0.4,1.9,97,0.00,SKC,,0.00,WeatherDisplay:10.37,2013-07-06 04:38:00,
2013-07-06 00:43:00,70.5,69.6,30.16,West,270,0.0,2.3,97,0.00,SKC,,0.00,WeatherDisplay:10.37,2013-07-06 04:43:00,
2013-07-06 00:48:00,70.5,69.6,30.16,West,270,0.0,0.0,97,0.00,SKC,,0.00,WeatherDisplay:10.37,2013-07-06 04:48:00,
2013-07-06 00:53:00,70.7,69.8,30.16,West,270,0.1,2.3,97,0.00,SKC,,0.00,WeatherDisplay:10.37,2013-07-06 04:53:00,
2013-07-06 00:58:00,70.7,69.8,30.16,West,270,0.0,0.0,97,0.00,SKC,,0.00,WeatherDisplay:10.37,2013-07-06 04:58:00,
2013-07-06 01:03:00,70.7,69.8,30.16,West,270,0.0,0.0,97,0.00,SKC,,0.00,WeatherDisplay:10.37,2013-07-06 05:03:00,
2013-07-06 01:08:00,70.7,69.8,30.16,West,270,0.0,0.0,97,0.00,SKC,,0.00,WeatherDisplay:10.37,2013-07-06 05:08:00,
2013-07-06 01:13:00,70.9,70.0,30.16,West,270,0.0,0.0,97,0.02,RA,,0.03,WeatherDisplay:10.37,2013-07-06 05:13:00,
2013-07-06 01:18:00,71.1,70.2,30.16,SW,225,0.0,0.0,97,0.05,RA,,0.05,WeatherDisplay:10.37,2013-07-06 05:18:00,
2013-07-06 01:23:00,70.9,70.3,30.16,SW,225,0.0,0.0,98,0.05,RA,,0.05,WeatherDisplay:10.37,2013-07-06 05:23:00,
2013-07-06 01:28:00,71.1,70.8,30.17,South,180,2.7,3.6,99,0.08,RA,,0.09,WeatherDisplay:10.37,2013-07-06 05:28:00,
2013-07-06 01:33:00,71.1,70.8,30.17,SW,225,0.1,4.4,99,0.16,RA,,0.16,WeatherDisplay:10.37,2013-07-06 05:33:00,
2013-07-06 01:38:00,71.1,70.8,30.17,WSW,248,1.0,4.6,99,0.17,RA,,0.17,WeatherDisplay:10.37,2013-07-06 05:38:00,
2013-07-06 01:43:00,71.1,70.8,30.17,WSW,248,0.0,0.0,99,0.18,RA,,0.18,WeatherDisplay:10.37,2013-07-06 05:43:00,
2013-07-06 01:48:00,70.9,70.6,30.17,SSE,158,1.5,3.6,99,0.18,RA,,0.18,WeatherDisplay:10.37,2013-07-06 05:48:00,
2013-07-06 01:53:00,70.9,70.6,30.17,SW,225,1.8,2.7,99,0.18,RA,,0.18,WeatherDisplay:10.37,2013-07-06 05:53:00,
2013-07-06 01:58:00,70.7,70.4,30.17,South,180,0.0,2.3,99,0.18,SKC,,0.18,WeatherDisplay:10.37,2013-07-06 05:58:00,
2013-07-06 02:03:00,70.5,69.9,30.17,SSE,158,0.0,2.3,98,0.18,SKC,,0.18,WeatherDisplay:10.37,2013-07-06 06:03:00,
2013-07-06 02:08:00,70.5,69.9,30.17,SSE,158,0.0,0.0,98,0.18,SKC,,0.18,WeatherDisplay:10.37,2013-07-06 06:08:00,
2013-07-06 02:13:00,70.3,69.7,30.17,SSE,158,0.0,0.0,98,0.16,SKC,,0.18,WeatherDisplay:10.37,2013-07-06 06:13:00,
2013-07-06 02:18:00,70.2,69.6,30.17,SSE,158,0.0,0.0,98,0.13,SKC,,0.18,WeatherDisplay:10.37,2013-07-06 06:18:00,
2013-07-06 02:23:00,70.0,69.4,30.17,SSE,158,0.0,0.0,98,0.13,SKC,,0.18,WeatherDisplay:10.37,2013-07-06 06:23:00,
2013-07-06 02:28:00,69.8,69.2,30.18,SSE,158,0.0,0.0,98,0.10,SKC,,0.18,WeatherDisplay:10.37,2013-07-06 06:28:00,
2013-07-06 02:33:00,69.8,69.2,30.18,SSE,158,0.0,0.0,98,0.02,SKC,,0.18,WeatherDisplay:10.37,2013-07-06 06:33:00,
2013-07-06 02:38:00,69.8,69.2,30.18,SSE,158,0.0,0.0,98,0.01,SKC,,0.18,WeatherDisplay:10.37,2013-07-06 06:38:00,
2013-07-06 02:43:00,69.8,69.2,30.17,SSE,158,0.0,0.0,98,0.00,SKC,,0.18,WeatherDisplay:10.37,2013-07-06 06:43:00,
2013-07-06 02:48:00,69.6,69.0,30.17,SSE,158,0.0,0.0,98,0.00,SKC,,0.18,WeatherDisplay:10.37,2013-07-06 06:48:00,
2013-07-06 02:53:00,69.4,68.8,30.17,SSE,158,0.0,0.0,98,0.00,SKC,,0.18,WeatherDisplay:10.37,2013-07-06 06:53:00,
2013-07-06 02:58:00,69.3,69.0,30.17,SSE,158,0.0,0.0,99,0.00,SKC,,0.18,WeatherDisplay:10.37,2013-07-06 06:58:00,
2013-07-06 03:03:00,69.1,68.8,30.17,SSE,158,0.0,0.0,99,0.00,SKC,,0.18,WeatherDisplay:10.37,2013-07-06 07:03:00,
2013-07-06 03:08:00,69.1,68.8,30.17,SSE,158,0.0,0.0,99,0.00,SKC,,0.18,WeatherDisplay:10.37,2013-07-06 07:08:00,
2013-07-06 03:13:00,68.9,68.6,30.17,SSE,158,0.0,0.0,99,0.00,SKC,,0.18,WeatherDisplay:10.37,2013-07-06 07:13:00,
2013-07-06 03:18:00,68.7,68.4,30.17,SSE,158,0.0,0.0,99,0.00,SKC,,0.18,WeatherDisplay:10.37,2013-07-06 07:18:00,
2013-07-06 03:19:00,68.7,68.4,30.17,SSE,158,0.0,0.0,99,0.00,SKC,,0.18,WeatherDisplay:10.37,2013-07-06 07:19:00,
2013-07-06 03:24:00,68.5,68.2,30.17,SSE,158,0.0,0.0,99,0.00,SKC,,0.18,WeatherDisplay:10.37,2013-07-06 07:24:00,
2013-07-06 03:29:00,68.5,68.2,30.17,SSE,158,0.0,0.0,99,0.00,SKC,,0.18,WeatherDisplay:10.37,2013-07-06 07:29:00,
2013-07-06 03:34:00,68.5,68.2,30.17,SSE,158,0.0,0.0,99,0.00,SKC,,0.18,WeatherDisplay:10.37,2013-07-06 07:34:00,
2013-07-06 03:39:00,68.4,68.1,30.17,SSE,158,0.0,0.0,99,0.00,SKC,,0.18,WeatherDisplay:10.37,2013-07-06 07:39:00,
2013-07-06 03:44:00,68.4,68.1,30.17,SSE,158,0.0,0.0,99,0.01,RA,,0.19,WeatherDisplay:10.37,2013-07-06 07:44:00,
2013-07-06 03:49:00,68.4,68.1,30.17,SSE,158,0.0,0.0,99,0.01,RA,,0.19,WeatherDisplay:10.37,2013-07-06 07:49:00,
2013-07-06 03:54:00,68.5,68.2,30.17,SSE,158,0.0,0.0,99,0.01,RA,,0.19,WeatherDisplay:10.37,2013-07-06 07:54:00,
2013-07-06 03:59:00,68.5,68.2,30.17,SSE,158,0.0,0.0,99,0.01,SKC,,0.19,WeatherDisplay:10.37,2013-07-06 07:59:00,
2013-07-06 04:04:00,68.5,68.2,30.17,SSE,158,0.0,0.0,99,0.01,SKC,,0.19,WeatherDisplay:10.37,2013-07-06 08:04:00,
2013-07-06 04:09:00,68.4,68.1,30.17,SSE,158,0.0,0.0,99,0.01,SKC,,0.19,WeatherDisplay:10.37,2013-07-06 08:09:00,
2013-07-06 04:14:00,68.4,68.4,30.17,SSE,158,0.0,0.0,100,0.01,SKC,,0.19,WeatherDisplay:10.37,2013-07-06 08:14:00,
2013-07-06 04:19:00,68.4,68.4,30.17,SSE,158,0.0,0.0,100,0.01,SKC,,0.19,WeatherDisplay:10.37,2013-07-06 08:19:00,
2013-07-06 04:24:00,68.4,68.4,30.17,SSE,158,0.0,0.0,100,0.01,SKC,,0.19,WeatherDisplay:10.37,2013-07-06 08:24:00,
2013-07-06 04:29:00,68.2,68.2,30.17,SSE,158,0.0,0.0,100,0.01,SKC,,0.19,WeatherDisplay:10.37,2013-07-06 08:29:00,
2013-07-06 04:34:00,68.2,68.2,30.17,SSE,158,0.0,0.0,100,0.01,SKC,,0.19,WeatherDisplay:10.37,2013-07-06 08:34:00,
2013-07-06 04:39:00,68.2,68.2,30.17,SSE,158,0.0,0.0,100,0.01,SKC,,0.19,WeatherDisplay:10.37,2013-07-06 08:39:00,
2013-07-06 04:44:00,68.2,68.2,30.17,SSE,158,0.0,0.0,100,0.00,SKC,,0.19,WeatherDisplay:10.37,2013-07-06 08:44:00,
2013-07-06 04:49:00,68.2,68.2,30.17,SSE,158,0.0,0.0,100,0.00,SKC,,0.19,WeatherDisplay:10.37,2013-07-06 08:49:00,
2013-07-06 04:54:00,68.2,68.2,30.17,SSE,158,0.0,0.0,100,0.00,SKC,,0.19,WeatherDisplay:10.37,2013-07-06 08:54:00,
2013-07-06 04:59:00,68.0,68.0,30.17,SSE,158,0.0,0.0,100,0.00,SKC,,0.19,WeatherDisplay:10.37,2013-07-06 08:59:00,
2013-07-06 05:04:00,68.0,68.0,30.17,SSE,158,0.0,0.0,100,0.00,SKC,,0.19,WeatherDisplay:10.37,2013-07-06 09:04:00,
2013-07-06 05:09:00,67.8,67.8,30.17,SSE,158,0.0,0.0,100,0.00,SKC,,0.19,WeatherDisplay:10.37,2013-07-06 09:09:00,
2013-07-06 05:14:00,67.6,67.6,30.17,SSE,158,0.0,0.0,100,0.00,SKC,,0.19,WeatherDisplay:10.37,2013-07-06 09:14:00,
2013-07-06 05:16:00,67.6,67.6,30.17,SSE,158,0.0,0.0,100,0.00,SKC,,0.19,WeatherDisplay:10.37,2013-07-06 09:16:00,
2013-07-06 05:21:00,67.5,67.5,30.17,SSE,158,0.0,0.0,100,0.00,SKC,,0.19,WeatherDisplay:10.37,2013-07-06 09:21:00,
2013-07-06 05:26:00,67.5,67.5,30.17,SSE,158,0.0,0.0,100,0.00,SKC,,0.19,WeatherDisplay:10.37,2013-07-06 09:26:00,
2013-07-06 05:31:00,67.5,67.5,30.17,SSE,158,0.0,0.0,100,0.00,SKC,,0.19,WeatherDisplay:10.37,2013-07-06 09:31:00,
2013-07-06 05:36:00,67.3,67.3,30.17,SSE,158,0.0,0.0,100,0.00,SKC,,0.19,WeatherDisplay:10.37,2013-07-06 09:36:00,
2013-07-06 05:41:00,67.3,67.3,30.17,SSE,158,0.0,0.0,100,0.00,SKC,,0.19,WeatherDisplay:10.37,2013-07-06 09:41:00,
2013-07-06 05:46:00,67.1,67.1,30.17,SSE,158,0.0,0.0,100,0.00,SKC,,0.19,WeatherDisplay:10.37,2013-07-06 09:46:00,
2013-07-06 05:51:00,67.1,67.1,30.17,SSE,158,0.0,0.0,100,0.00,SKC,,0.19,WeatherDisplay:10.37,2013-07-06 09:51:00,
2013-07-06 05:56:00,66.9,66.9,30.17,SSE,158,0.0,0.0,100,0.00,SKC,,0.19,WeatherDisplay:10.37,2013-07-06 09:56:00,
2013-07-06 06:01:00,66.9,66.9,30.17,SSE,158,0.0,0.0,100,0.00,SKC,,0.19,WeatherDisplay:10.37,2013-07-06 10:01:00,
2013-07-06 06:06:00,66.9,66.9,30.17,SSE,158,0.0,0.0,100,0.00,SKC,,0.19,WeatherDisplay:10.37,2013-07-06 10:06:00,
2013-07-06 06:11:00,66.9,66.9,30.17,SSE,158,0.0,0.0,100,0.00,SKC,,0.19,WeatherDisplay:10.37,2013-07-06 10:11:00,
2013-07-06 06:16:00,67.1,67.1,30.17,SSE,158,0.0,0.0,100,0.00,SKC,,0.19,WeatherDisplay:10.37,2013-07-06 10:16:00,
2013-07-06 06:21:00,66.9,66.9,30.17,SSE,158,0.0,0.0,100,0.00,SKC,,0.19,WeatherDisplay:10.37,2013-07-06 10:21:00,
2013-07-06 06:26:00,67.1,67.1,30.17,SSE,158,0.0,0.0,100,0.00,SKC,,0.19,WeatherDisplay:10.37,2013-07-06 10:26:00,
2013-07-06 06:31:00,67.3,67.3,30.17,SSE,158,0.0,0.0,100,0.00,SKC,,0.19,WeatherDisplay:10.37,2013-07-06 10:31:00,
2013-07-06 06:36:00,67.6,67.6,30.17,SSE,158,0.0,0.0,100,0.00,SKC,,0.19,WeatherDisplay:10.37,2013-07-06 10:36:00,
2013-07-06 06:41:00,67.8,67.8,30.17,SSE,158,0.0,0.0,100,0.00,SKC,,0.19,WeatherDisplay:10.37,2013-07-06 10:41:00,
2013-07-06 06:46:00,68.0,68.0,30.17,SSE,158,0.0,0.0,100,0.00,SKC,,0.19,WeatherDisplay:10.37,2013-07-06 10:46:00,
2013-07-06 06:51:00,68.2,68.2,30.17,SSE,158,0.0,0.0,100,0.00,SKC,,0.19,WeatherDisplay:10.37,2013-07-06 10:51:00,
2013-07-06 06:56:00,68.4,68.4,30.17,SSE,158,0.0,0.0,100,0.00,SKC,,0.19,WeatherDisplay:10.37,2013-07-06 10:56:00,
2013-07-06 07:01:00,68.9,68.9,30.17,SSE,158,2.5,2.7,100,0.00,SKC,,0.19,WeatherDisplay:10.37,2013-07-06 11:01:00,
2013-07-06 07:06:00,69.3,69.3,30.18,SSE,158,0.0,0.0,100,0.00,SKC,,0.19,WeatherDisplay:10.37,2013-07-06 11:06:00,
2013-07-06 07:11:00,69.4,69.4,30.18,SSE,158,0.0,0.0,100,0.00,SKC,,0.19,WeatherDisplay:10.37,2013-07-06 11:11:00,
2013-07-06 07:16:00,69.8,69.8,30.18,SSE,158,0.0,0.0,100,0.00,SKC,,0.19,WeatherDisplay:10.37,2013-07-06 11:16:00,
2013-07-06 07:21:00,70.2,70.2,30.18,SSE,158,2.3,2.7,100,0.00,SKC,,0.19,WeatherDisplay:10.37,2013-07-06 11:21:00,
2013-07-06 07:26:00,70.5,70.2,30.18,SSE,158,1.6,2.7,99,0.00,SKC,,0.19,WeatherDisplay:10.37,2013-07-06 11:26:00,
2013-07-06 07:31:00,70.9,70.3,30.18,SSE,158,1.0,4.6,98,0.00,SKC,,0.19,WeatherDisplay:10.37,2013-07-06 11:31:00,
2013-07-06 07:36:00,71.2,70.3,30.18,SW,225,3.1,3.6,97,0.00,SKC,,0.19,WeatherDisplay:10.37,2013-07-06 11:36:00,
2013-07-06 07:41:00,72.1,70.9,30.19,SW,225,1.2,3.6,96,0.00,SKC,,0.19,WeatherDisplay:10.37,2013-07-06 11:41:00,
2013-07-06 07:46:00,72.9,70.8,30.19,SSE,158,3.5,5.8,93,0.00,SKC,,0.19,WeatherDisplay:10.37,2013-07-06 11:46:00,
2013-07-06 07:51:00,73.8,71.0,30.19,SSW,202,3.6,4.6,91,0.00,SKC,,0.19,WeatherDisplay:10.37,2013-07-06 11:51:00,
2013-07-06 07:56:00,74.5,71.4,30.19,South,180,0.5,5.8,90,0.00,SKC,,0.19,WeatherDisplay:10.37,2013-07-06 11:56:00,
2013-07-06 08:01:00,75.0,71.9,30.19,West,270,0.9,4.4,90,0.00,SKC,,0.19,WeatherDisplay:10.37,2013-07-06 12:01:00,
2013-07-06 08:06:00,75.6,71.8,30.19,South,180,2.8,4.6,88,0.00,SKC,,0.19,WeatherDisplay:10.37,2013-07-06 12:06:00,
2013-07-06 08:11:00,75.9,71.4,30.19,SW,225,3.7,5.8,86,0.00,SKC,,0.19,WeatherDisplay:10.37,2013-07-06 12:11:00,
2013-07-06 08:16:00,75.4,71.6,30.19,SSW,202,3.9,4.6,88,0.00,SKC,,0.19,WeatherDisplay:10.37,2013-07-06 12:16:00,
2013-07-06 08:21:00,77.0,71.8,30.19,West,270,5.5,7.0,84,0.00,SKC,,0.19,WeatherDisplay:10.37,2013-07-06 12:21:00,
2013-07-06 08:26:00,77.7,72.1,30.19,West,270,5.0,6.1,83,0.00,SKC,,0.19,WeatherDisplay:10.37,2013-07-06 12:26:00,
2013-07-06 08:31:00,77.4,71.8,30.19,WSW,248,4.5,6.1,83,0.00,SKC,,0.19,WeatherDisplay:10.37,2013-07-06 12:31:00,
2013-07-06 08:36:00,77.0,71.8,30.19,SW,225,3.3,4.6,84,0.00,SKC,,0.19,WeatherDisplay:10.37,2013-07-06 12:36:00,
2013-07-06 08:42:00,77.2,71.3,30.19,SSE,158,6.8,7.8,82,0.00,SKC,,0.19,WeatherDisplay:10.37,2013-07-06 12:42:00,
2013-07-06 08:47:00,76.1,71.3,30.19,SW,225,4.2,5.8,85,0.00,SKC,,0.19,WeatherDisplay:10.37,2013-07-06 12:47:00,
2013-07-06 08:52:00,77.5,71.9,30.19,SSE,158,4.1,6.1,83,0.00,SKC,,0.19,WeatherDisplay:10.37,2013-07-06 12:52:00,
2013-07-06 08:57:00,79.2,72.1,30.19,SE,135,5.3,7.0,79,0.00,SKC,,0.19,WeatherDisplay:10.37,2013-07-06 12:57:00,
2013-07-06 09:02:00,79.9,72.4,30.19,SSW,202,5.0,6.1,78,0.00,FEW,,0.19,WeatherDisplay:10.37,2013-07-06 13:02:00,
2013-07-06 09:07:00,78.1,71.8,30.19,SSE,158,4.8,6.9,81,0.00,FEW,,0.19,WeatherDisplay:10.37,2013-07-06 13:07:00,
2013-07-06 09:12:00,77.7,71.8,30.19,South,180,4.7,7.0,82,0.00,FEW,,0.19,WeatherDisplay:10.37,2013-07-06 13:12:00,
2013-07-06 09:17:00,78.1,71.8,30.19,East,90,3.2,9.2,81,0.00,FEW,,0.19,WeatherDisplay:10.37,2013-07-06 13:17:00,
2013-07-06 09:22:00,78.4,71.7,30.19,SE,135,4.3,5.3,80,0.00,FEW,,0.19,WeatherDisplay:10.37,2013-07-06 13:22:00,
2013-07-06 09:27:00,78.8,71.7,30.19,SSE,158,4.7,6.1,79,0.00,FEW,,0.19,WeatherDisplay:10.37,2013-07-06 13:27:00,
2013-07-06 09:32:00,79.9,72.8,30.19,SSE,158,3.4,5.3,79,0.00,FEW,,0.19,WeatherDisplay:10.37,2013-07-06 13:32:00,
2013-07-06 09:37:00,78.6,72.3,30.19,WSW,248,3.1,4.6,81,0.00,FEW,,0.19,WeatherDisplay:10.37,2013-07-06 13:37:00,
2013-07-06 09:42:00,80.6,72.7,30.18,SW,225,3.7,4.6,77,0.00,FEW,,0.19,WeatherDisplay:10.37,2013-07-06 13:42:00,
2013-07-06 09:47:00,80.4,72.5,30.18,SW,225,2.9,4.6,77,0.00,FEW,,0.19,WeatherDisplay:10.37,2013-07-06 13:47:00,
2013-07-06 09:52:00,80.2,72.3,30.18,SSW,202,1.8,6.9,77,0.00,FEW,,0.19,WeatherDisplay:10.37,2013-07-06 13:52:00,
2013-07-06 09:57:00,80.8,72.5,30.18,SSW,202,3.8,5.3,76,0.00,FEW,,0.19,WeatherDisplay:10.37,2013-07-06 13:57:00,
2013-07-06 10:02:00,81.5,72.8,30.18,SW,225,2.9,5.8,75,0.00,SCT,,0.19,WeatherDisplay:10.37,2013-07-06 14:02:00,
2013-07-06 10:07:00,80.4,71.7,30.18,West,270,5.2,8.1,75,0.00,SCT,,0.19,WeatherDisplay:10.37,2013-07-06 14:07:00,
2013-07-06 10:12:00,80.4,71.7,30.18,SSW,202,3.8,6.9,75,0.00,SCT,,0.19,WeatherDisplay:10.37,2013-07-06 14:12:00,
2013-07-06 10:17:00,79.3,70.7,30.18,SW,225,5.2,7.0,75,0.00,SCT,,0.19,WeatherDisplay:10.37,2013-07-06 14:17:00,
2013-07-06 10:22:00,80.1,71.1,30.18,NW,315,4.3,5.3,74,0.00,SCT,,0.19,WeatherDisplay:10.37,2013-07-06 14:22:00,
2013-07-06 10:27:00,81.1,72.0,30.18,SW,225,4.6,5.3,74,0.00,SCT,,0.19,WeatherDisplay:10.37,2013-07-06 14:27:00,
2013-07-06 10:32:00,81.3,71.8,30.18,WSW,248,4.8,6.9,73,0.00,SCT,,0.19,WeatherDisplay:10.37,2013-07-06 14:32:00,
2013-07-06 10:37:00,82.0,72.1,30.18,South,180,4.4,4.6,72,0.00,SCT,,0.19,WeatherDisplay:10.37,2013-07-06 14:37:00,
2013-07-06 10:42:00,82.6,73.1,30.18,WSW,248,4.0,5.3,73,0.00,SCT,,0.19,WeatherDisplay:10.37,2013-07-06 14:42:00,
2013-07-06 10:47:00,81.9,71.6,30.18,SSE,158,3.9,7.8,71,0.00,SCT,,0.19,WeatherDisplay:10.37,2013-07-06 14:47:00,
2013-07-06 10:52:00,82.4,72.0,30.18,West,270,5.0,7.0,71,0.00,SCT,,0.19,WeatherDisplay:10.37,2013-07-06 14:52:00,
2013-07-06 10:57:00,82.9,71.7,30.18,SW,225,5.2,9.2,69,0.00,SCT,,0.19,WeatherDisplay:10.37,2013-07-06 14:57:00,
2013-07-06 11:02:00,82.8,72.0,30.18,South,180,4.7,6.9,70,0.00,SCT,,0.19,WeatherDisplay:10.37,2013-07-06 15:02:00,
2013-07-06 11:07:00,82.4,71.6,30.18,SW,225,4.0,9.2,70,0.00,SCT,,0.19,WeatherDisplay:10.37,2013-07-06 15:07:00,
2013-07-06 11:12:00,83.1,71.4,30.18,South,180,6.3,9.2,68,0.00,SCT,,0.19,WeatherDisplay:10.37,2013-07-06 15:12:00,
2013-07-06 11:17:00,82.9,71.7,30.17,SW,225,5.2,8.1,69,0.00,SCT,,0.19,WeatherDisplay:10.37,2013-07-06 15:17:00,
2013-07-06 11:22:00,82.9,71.7,30.17,West,270,5.4,6.9,69,0.00,SCT,,0.19,WeatherDisplay:10.37,2013-07-06 15:22:00,
2013-07-06 11:27:00,83.7,71.6,30.17,SSE,158,4.9,7.0,67,0.00,SCT,,0.19,WeatherDisplay:10.37,2013-07-06 15:27:00,
2013-07-06 11:32:00,84.9,72.7,30.17,SSW,202,4.1,6.1,67,0.00,SCT,,0.19,WeatherDisplay:10.37,2013-07-06 15:32:00,
2013-07-06 11:37:00,84.7,71.6,30.17,SW,225,3.6,5.8,65,0.00,SCT,,0.19,WeatherDisplay:10.37,2013-07-06 15:37:00,
2013-07-06 11:42:00,84.9,71.4,30.17,SSW,202,4.7,6.9,64,0.00,SCT,,0.19,WeatherDisplay:10.37,2013-07-06 15:42:00,
2013-07-06 11:47:00,85.8,72.2,30.17,South,180,5.1,7.0,64,0.00,SCT,,0.19,WeatherDisplay:10.37,2013-07-06 15:47:00,
2013-07-06 11:52:00,85.6,72.0,30.16,SSE,158,5.0,5.8,64,0.00,SCT,,0.19,WeatherDisplay:10.37,2013-07-06 15:52:00,
2013-07-06 11:57:00,85.3,71.7,30.16,SSE,158,3.0,3.6,64,0.00,SCT,,0.19,WeatherDisplay:10.37,2013-07-06 15:57:00,
2013-07-06 12:02:00,84.9,71.4,30.16,WSW,248,3.6,7.0,64,0.00,SCT,,0.19,WeatherDisplay:10.37,2013-07-06 16:02:00,
2013-07-06 12:07:00,85.3,71.3,30.16,SW,225,4.1,6.1,63,0.00,SCT,,0.19,WeatherDisplay:10.37,2013-07-06 16:07:00,
2013-07-06 12:13:00,84.9,71.8,30.16,SE,135,4.1,9.2,65,0.00,SCT,,0.19,WeatherDisplay:10.37,2013-07-06 16:13:00,
2013-07-06 12:18:00,84.6,71.5,30.16,SW,225,3.9,4.6,65,0.00,SCT,,0.19,WeatherDisplay:10.37,2013-07-06 16:18:00,
2013-07-06 12:23:00,86.4,71.4,30.16,SSE,158,8.1,9.5,61,0.00,SCT,,0.19,WeatherDisplay:10.37,2013-07-06 16:23:00,
2013-07-06 12:28:00,85.5,70.5,30.16,WNW,292,3.7,4.6,61,0.00,SCT,,0.19,WeatherDisplay:10.37,2013-07-06 16:28:00,
2013-07-06 12:33:00,85.6,70.1,30.16,WSW,248,1.8,5.8,60,0.00,SCT,,0.19,WeatherDisplay:10.37,2013-07-06 16:33:00,
2013-07-06 12:39:00,86.2,69.7,30.15,SW,225,4.1,9.2,58,0.00,SCT,,0.19,WeatherDisplay:10.37,2013-07-06 16:39:00,
2013-07-06 12:47:00,86.5,70.0,30.15,NW,315,3.1,8.1,58,0.00,SCT,,0.19,WeatherDisplay:10.37,2013-07-06 16:47:00,
2013-07-06 12:53:00,86.2,70.2,30.14,West,270,3.6,9.2,59,0.00,SCT,,0.19,WeatherDisplay:10.37,2013-07-06 16:53:00,
2013-07-06 12:58:00,87.8,70.7,30.14,SSE,158,3.9,6.1,57,0.00,SCT,,0.19,WeatherDisplay:10.37,2013-07-06 16:58:00,
2013-07-06 13:05:00,88.1,72.5,30.14,SW,233,5.0,8.0,60,0.00,SCT,SCT,0.19,WeatherDisplay:10.37,2013-07-06 17:05:00,
2013-07-06 13:10:00,87.4,70.8,30.14,SW,214,3.0,6.0,58,0.00,SCT,SCT,0.19,WeatherDisplay:10.37,2013-07-06 17:10:00,
2013-07-06 13:15:00,87.8,72.2,30.14,WNW,292,3.1,4.6,60,0.00,SCT,,0.19,WeatherDisplay:10.37,2013-07-06 17:15:00,
2013-07-06 13:21:00,88.3,72.2,30.14,SSW,202,3.9,8.1,59,0.00,SCT,,0.19,WeatherDisplay:10.37,2013-07-06 17:21:00,
2013-07-06 13:26:00,88.2,71.6,30.14,ESE,112,4.1,6.9,58,0.00,SCT,,0.19,WeatherDisplay:10.37,2013-07-06 17:26:00,
2013-07-06 13:32:00,87.6,70.5,30.13,SE,135,5.8,7.8,57,0.00,SCT,,0.19,WeatherDisplay:10.37,2013-07-06 17:32:00,
2013-07-06 13:37:00,88.3,70.1,30.13,ESE,112,4.9,6.1,55,0.00,SCT,,0.19,WeatherDisplay:10.37,2013-07-06 17:37:00,
2013-07-06 13:42:00,88.0,70.9,30.13,NE,45,3.3,4.6,57,0.00,SCT,,0.19,WeatherDisplay:10.37,2013-07-06 17:42:00,
2013-07-06 13:47:00,87.6,71.0,30.13,West,270,4.6,6.9,58,0.00,SCT,,0.19,WeatherDisplay:10.37,2013-07-06 17:47:00,
2013-07-06 13:52:00,88.0,71.4,30.12,WSW,248,4.6,6.9,58,0.00,SCT,,0.19,WeatherDisplay:10.37,2013-07-06 17:52:00,
2013-07-06 13:57:00,88.2,72.1,30.12,SSE,158,3.5,8.1,59,0.00,SCT,,0.19,WeatherDisplay:10.37,2013-07-06 17:57:00,
2013-07-06 14:02:00,88.0,70.9,30.12,West,270,5.9,8.1,57,0.00,BKN,,0.19,WeatherDisplay:10.37,2013-07-06 18:02:00,
2013-07-06 14:07:00,88.2,71.0,30.12,ESE,112,4.5,5.3,57,0.00,BKN,,0.19,WeatherDisplay:10.37,2013-07-06 18:07:00,
2013-07-06 14:12:00,88.9,72.2,30.12,NNE,22,4.8,8.1,58,0.00,BKN,,0.19,WeatherDisplay:10.37,2013-07-06 18:12:00,
2013-07-06 14:17:00,88.5,71.3,30.11,WSW,248,2.6,6.1,57,0.00,BKN,,0.19,WeatherDisplay:10.37,2013-07-06 18:17:00,
2013-07-06 14:22:00,87.8,70.1,30.11,WNW,292,3.4,4.6,56,0.00,BKN,,0.19,WeatherDisplay:10.37,2013-07-06 18:22:00,
2013-07-06 14:28:00,89.8,72.0,30.10,ENE,68,6.5,7.8,56,0.00,BKN,,0.19,WeatherDisplay:10.37,2013-07-06 18:28:00,
2013-07-06 14:36:00,88.9,71.7,30.10,WNW,292,5.8,9.2,57,0.00,BKN,,0.19,WeatherDisplay:10.37,2013-07-06 18:36:00,
2013-07-06 14:41:00,88.5,71.3,30.10,NNW,338,6.2,8.1,57,0.00,BKN,,0.19,WeatherDisplay:10.37,2013-07-06 18:41:00,
2013-07-06 14:46:00,88.9,71.7,30.10,West,270,8.3,12.1,57,0.00,BKN,,0.19,WeatherDisplay:10.37,2013-07-06 18:46:00,
2013-07-06 14:51:00,90.0,72.7,30.10,West,270,4.0,8.1,57,0.00,BKN,,0.19,WeatherDisplay:10.37,2013-07-06 18:51:00,
2013-07-06 14:56:00,88.9,71.7,30.10,NW,315,3.3,5.8,57,0.00,BKN,,0.19,WeatherDisplay:10.37,2013-07-06 18:56:00,
2013-07-06 15:01:00,89.1,71.4,30.10,SSW,202,4.3,5.8,56,0.00,BKN,,0.19,WeatherDisplay:10.37,2013-07-06 19:01:00,
2013-07-06 15:09:00,90.3,71.4,30.10,West,270,8.0,9.5,54,0.00,BKN,,0.19,WeatherDisplay:10.37,2013-07-06 19:09:00,
2013-07-06 15:14:00,89.1,71.4,30.10,NW,315,0.9,2.7,56,0.00,BKN,,0.19,WeatherDisplay:10.37,2013-07-06 19:14:00,
2013-07-06 15:19:00,90.5,70.5,30.09,WSW,248,1.5,3.6,52,0.00,BKN,,0.19,WeatherDisplay:10.37,2013-07-06 19:19:00,
2013-07-06 15:25:00,89.4,71.1,30.09,West,264,6.0,8.0,55,0.00,BKN,BKN,0.19,WeatherDisplay:10.37,2013-07-06 19:25:00,
2013-07-06 15:31:00,89.6,71.8,30.08,West,270,4.2,5.3,56,0.00,BKN,,0.19,WeatherDisplay:10.37,2013-07-06 19:31:00,
2013-07-06 15:41:00,89.8,71.5,30.08,SW,225,5.9,9.2,55,0.00,BKN,,0.19,WeatherDisplay:10.37,2013-07-06 19:41:00,
2013-07-06 15:46:00,91.4,71.3,30.08,South,180,1.6,4.6,52,0.00,BKN,,0.19,WeatherDisplay:10.37,2013-07-06 19:46:00,
2013-07-06 15:51:00,90.3,70.8,30.08,SSW,202,6.1,11.5,53,0.00,BKN,,0.19,WeatherDisplay:10.37,2013-07-06 19:51:00,
2013-07-06 15:58:00,89.4,71.6,30.08,West,270,4.1,8.1,56,0.00,BKN,,0.19,WeatherDisplay:10.37,2013-07-06 19:58:00,
2013-07-06 16:03:00,90.3,71.4,30.08,WSW,248,6.7,8.1,54,0.00,BKN,,0.19,WeatherDisplay:10.37,2013-07-06 20:03:00,
2013-07-06 16:09:00,90.1,71.2,30.08,West,270,7.6,9.5,54,0.00,BKN,,0.19,WeatherDisplay:10.37,2013-07-06 20:09:00,
2013-07-06 16:15:00,90.5,71.6,30.08,WSW,248,4.9,7.0,54,0.00,BKN,,0.19,WeatherDisplay:10.37,2013-07-06 20:15:00,
2013-07-06 16:20:00,90.3,71.4,30.07,SSE,158,2.8,3.5,54,0.00,BKN,,0.19,WeatherDisplay:10.37,2013-07-06 20:20:00,
2013-07-06 16:25:00,91.2,71.1,30.07,SSW,202,4.3,5.8,52,0.00,BKN,,0.19,WeatherDisplay:10.37,2013-07-06 20:25:00,
2013-07-06 16:30:00,90.0,71.1,30.06,SSW,202,3.9,4.4,54,0.00,BKN,,0.19,WeatherDisplay:10.37,2013-07-06 20:30:00,
2013-07-06 16:35:00,90.3,70.8,30.06,West,270,5.4,9.2,53,0.00,BKN,,0.19,WeatherDisplay:10.37,2013-07-06 20:35:00,
2013-07-06 16:40:00,90.6,71.6,30.06,WNW,302,5.0,8.0,54,0.00,BKN,BKN,0.19,WeatherDisplay:10.37,2013-07-06 20:40:00,
2013-07-06 16:45:00,89.6,70.8,30.06,WNW,292,5.0,7.0,54,0.00,BKN,,0.19,WeatherDisplay:10.37,2013-07-06 20:45:00,
2013-07-06 16:50:00,89.9,71.6,30.06,WNW,298,5.0,7.0,55,0.00,BKN,BKN,0.19,WeatherDisplay:10.37,2013-07-06 20:50:00,
2013-07-06 16:55:00,90.1,70.7,30.06,South,180,3.5,9.2,53,0.00,BKN,,0.19,WeatherDisplay:10.37,2013-07-06 20:55:00,
2013-07-06 17:00:00,89.8,70.9,30.06,West,270,3.1,5.8,54,0.00,BKN,,0.19,WeatherDisplay:10.37,2013-07-06 21:00:00,
2013-07-06 17:06:00,90.9,70.8,30.05,NNW,338,6.6,8.7,52,0.00,SCT,,0.19,WeatherDisplay:10.37,2013-07-06 21:06:00,
2013-07-06 17:11:00,91.0,70.4,30.05,West,270,5.1,8.1,51,0.00,SCT,,0.19,WeatherDisplay:10.37,2013-07-06 21:11:00,
2013-07-06 17:17:00,90.1,70.7,30.05,SSW,202,0.3,3.6,53,0.00,SCT,,0.19,WeatherDisplay:10.37,2013-07-06 21:17:00,
2013-07-06 17:23:00,91.4,70.7,30.05,West,270,5.5,8.1,51,0.00,SCT,,0.19,WeatherDisplay:10.37,2013-07-06 21:23:00,
2013-07-06 17:28:00,90.5,72.1,30.05,WNW,292,4.3,6.1,55,0.00,SCT,,0.19,WeatherDisplay:10.37,2013-07-06 21:28:00,
2013-07-06 17:34:00,90.7,72.8,30.05,ESE,112,3.0,5.8,56,0.00,SCT,,0.19,WeatherDisplay:10.37,2013-07-06 21:34:00,
2013-07-06 17:39:00,90.9,72.0,30.05,West,270,2.6,6.9,54,0.00,SCT,,0.19,WeatherDisplay:10.37,2013-07-06 21:39:00,
2013-07-06 17:44:00,89.8,70.9,30.05,WNW,292,1.3,4.6,54,0.00,SCT,,0.19,WeatherDisplay:10.37,2013-07-06 21:44:00,
2013-07-06 17:49:00,90.5,71.6,30.05,West,270,5.1,6.1,54,0.00,SCT,,0.19,WeatherDisplay:10.37,2013-07-06 21:49:00,
2013-07-06 17:54:00,90.0,71.1,30.04,West,270,4.7,6.1,54,0.00,SCT,,0.19,WeatherDisplay:10.37,2013-07-06 21:54:00,
2013-07-06 18:00:00,88.9,70.6,30.04,West,270,5.0,7.8,55,0.00,SCT,,0.19,WeatherDisplay:10.37,2013-07-06 22:00:00,
2013-07-06 18:06:00,89.6,71.3,30.04,NW,315,2.7,5.8,55,0.00,BKN,,0.19,WeatherDisplay:10.37,2013-07-06 22:06:00,
2013-07-06 18:11:00,90.1,71.8,30.04,WNW,292,2.7,3.5,55,0.00,BKN,,0.19,WeatherDisplay:10.37,2013-07-06 22:11:00,
2013-07-06 18:17:00,91.9,73.4,30.03,WNW,292,3.1,4.6,55,0.00,BKN,,0.19,WeatherDisplay:10.37,2013-07-06 22:17:00,
2013-07-06 18:25:00,91.2,73.3,30.03,NW,315,2.7,4.6,56,0.00,BKN,,0.19,WeatherDisplay:10.37,2013-07-06 22:25:00,
2013-07-06 18:30:00,91.8,72.2,30.03,West,270,3.1,6.1,53,0.00,BKN,,0.19,WeatherDisplay:10.37,2013-07-06 22:30:00,
2013-07-06 18:35:00,91.9,71.8,30.03,NW,315,4.2,6.1,52,0.00,BKN,,0.19,WeatherDisplay:10.37,2013-07-06 22:35:00,
2013-07-06 18:40:00,91.4,73.0,30.03,NW,315,3.9,5.8,55,0.00,BKN,,0.19,WeatherDisplay:10.37,2013-07-06 22:40:00,
2013-07-06 18:46:00,91.4,72.4,30.03,NW,315,3.5,5.8,54,0.00,BKN,,0.19,WeatherDisplay:10.37,2013-07-06 22:46:00,
2013-07-06 18:54:00,91.9,72.3,30.03,NNW,329,2.0,4.0,53,0.00,BKN,BKN,0.19,WeatherDisplay:10.37,2013-07-06 22:54:00,
2013-07-06 19:00:00,91.8,72.8,30.03,WNW,292,1.1,4.6,54,0.00,BKN,,0.19,WeatherDisplay:10.37,2013-07-06 23:00:00,
2013-07-06 19:05:00,91.4,73.5,30.03,WNW,292,2.4,3.6,56,0.00,BKN,,0.19,WeatherDisplay:10.37,2013-07-06 23:05:00,
2013-07-06 19:10:00,91.4,72.4,30.03,West,270,3.2,7.0,54,0.00,BKN,,0.19,WeatherDisplay:10.37,2013-07-06 23:10:00,
2013-07-06 19:15:00,91.4,73.0,30.03,West,270,2.5,4.6,55,0.00,BKN,,0.19,WeatherDisplay:10.37,2013-07-06 23:15:00,
2013-07-06 19:20:00,90.0,72.7,30.03,NW,315,0.9,1.9,57,0.00,BKN,,0.19,WeatherDisplay:10.37,2013-07-06 23:20:00,
2013-07-06 19:27:00,90.3,72.5,30.03,NW,315,0.0,0.0,56,0.00,BKN,,0.19,WeatherDisplay:10.37,2013-07-06 23:27:00,
2013-07-06 19:32:00,90.3,72.5,30.03,NW,315,2.3,2.7,56,0.00,BKN,,0.19,WeatherDisplay:10.37,2013-07-06 23:32:00,
2013-07-06 19:40:00,90.1,73.3,30.04,NW,316,1.0,5.0,58,0.00,BKN,BKN,0.19,WeatherDisplay:10.37,2013-07-06 23:40:00,
2013-07-06 19:45:00,90.3,73.5,30.04,West,270,0.0,0.0,58,0.00,BKN,,0.19,WeatherDisplay:10.37,2013-07-06 23:45:00,
2013-07-06 19:50:00,89.6,72.9,30.04,West,270,0.2,3.5,58,0.00,BKN,,0.19,WeatherDisplay:10.37,2013-07-06 23:50:00,
2013-07-06 19:55:00,88.7,73.0,30.04,West,270,0.0,0.0,60,0.00,BKN,,0.19,WeatherDisplay:10.37,2013-07-06 23:55:00,
2013-07-06 20:01:00,87.6,73.0,30.04,West,270,0.0,0.0,62,0.00,BKN,,0.19,WeatherDisplay:10.37,2013-07-07 00:01:00,
2013-07-06 20:07:00,86.2,74.4,30.03,West,270,0.0,0.0,68,0.00,BKN,,0.19,WeatherDisplay:10.37,2013-07-07 00:07:00,
2013-07-06 20:14:00,84.7,73.4,30.03,West,270,0.0,0.0,69,0.00,BKN,,0.19,WeatherDisplay:10.37,2013-07-07 00:14:00,
2013-07-06 20:21:00,84.0,73.6,30.04,West,270,0.6,2.3,71,0.00,BKN,,0.19,WeatherDisplay:10.37,2013-07-07 00:21:00,
2013-07-06 20:28:00,82.4,73.3,30.04,West,270,0.0,0.0,74,0.00,BKN,,0.19,WeatherDisplay:10.37,2013-07-07 00:28:00,
2013-07-06 20:33:00,82.2,73.1,30.04,West,270,0.0,0.0,74,0.00,BKN,,0.19,WeatherDisplay:10.37,2013-07-07 00:33:00,
2013-07-06 20:38:00,82.0,73.3,30.04,West,270,0.0,0.0,75,0.00,BKN,,0.19,WeatherDisplay:10.37,2013-07-07 00:38:00,
2013-07-06 20:44:00,82.0,73.3,30.04,West,270,0.0,0.0,75,0.00,BKN,,0.19,WeatherDisplay:10.37,2013-07-07 00:44:00,
2013-07-06 20:50:00,80.6,72.7,30.04,West,270,0.0,0.0,77,0.00,BKN,,0.19,WeatherDisplay:10.37,2013-07-07 00:50:00,
2013-07-06 20:55:00,80.4,72.5,30.05,West,270,0.0,0.0,77,0.00,BKN,,0.19,WeatherDisplay:10.37,2013-07-07 00:55:00,
2013-07-06 21:00:00,80.2,72.3,30.05,West,270,0.0,0.0,77,0.00,BKN,,0.19,WeatherDisplay:10.37,2013-07-07 01:00:00,
2013-07-06 21:05:00,80.1,71.5,30.05,West,270,0.0,0.0,75,0.00,BKN,,0.19,WeatherDisplay:10.37,2013-07-07 01:05:00,
2013-07-06 21:11:00,79.9,72.8,30.05,West,270,0.0,0.0,79,0.00,BKN,,0.19,WeatherDisplay:10.37,2013-07-07 01:11:00,
2013-07-06 21:19:00,79.7,73.0,30.06,West,270,0.0,0.0,80,0.00,BKN,,0.19,WeatherDisplay:10.37,2013-07-07 01:19:00,
2013-07-06 21:25:00,79.5,72.8,30.06,West,270,0.0,0.0,80,0.00,BKN,,0.19,WeatherDisplay:10.37,2013-07-07 01:25:00,
2013-07-06 21:31:00,79.0,73.0,30.06,West,270,0.0,0.0,82,0.00,BKN,,0.19,WeatherDisplay:10.37,2013-07-07 01:31:00,
2013-07-06 21:38:00,78.4,72.8,30.06,West,270,0.0,0.0,83,0.00,BKN,,0.19,WeatherDisplay:10.37,2013-07-07 01:38:00,
2013-07-06 21:43:00,78.4,73.2,30.07,West,270,0.0,0.0,84,0.00,BKN,,0.19,WeatherDisplay:10.37,2013-07-07 01:43:00,
2013-07-06 21:48:00,77.9,73.0,30.07,West,270,0.0,0.0,85,0.00,BKN,,0.19,WeatherDisplay:10.37,2013-07-07 01:48:00,
2013-07-06 21:54:00,77.9,73.0,30.07,West,270,0.0,0.0,85,0.00,BKN,,0.19,WeatherDisplay:10.37,2013-07-07 01:54:00,
2013-07-06 21:59:00,77.9,73.0,30.07,West,270,0.0,0.0,85,0.00,BKN,,0.19,WeatherDisplay:10.37,2013-07-07 01:59:00,
2013-07-06 22:04:00,77.5,73.0,30.07,West,270,0.0,0.0,86,0.00,BKN,BKN,0.19,WeatherDisplay:10.37,2013-07-07 02:04:00,
2013-07-06 22:10:00,77.4,72.9,30.07,West,270,0.0,0.0,86,0.00,BKN,BKN,0.19,WeatherDisplay:10.37,2013-07-07 02:10:00,
2013-07-06 22:16:00,77.2,72.7,30.08,West,270,0.0,0.0,86,0.00,BKN,,0.19,WeatherDisplay:10.37,2013-07-07 02:16:00,
2013-07-06 22:21:00,77.0,73.2,30.08,West,270,0.0,0.0,88,0.00,BKN,,0.19,WeatherDisplay:10.37,2013-07-07 02:21:00,
2013-07-06 22:27:00,76.8,73.0,30.08,West,270,0.0,0.0,88,0.00,BKN,,0.19,WeatherDisplay:10.37,2013-07-07 02:27:00,
2013-07-06 22:34:00,76.8,73.3,30.08,West,270,0.0,0.0,89,0.00,BKN,,0.19,WeatherDisplay:10.37,2013-07-07 02:34:00,
2013-07-06 22:39:00,76.8,73.3,30.08,West,270,0.0,0.0,89,0.00,BKN,,0.19,WeatherDisplay:10.37,2013-07-07 02:39:00,
2013-07-06 22:45:00,76.6,73.4,30.08,West,270,0.0,0.0,90,0.00,BKN,,0.19,WeatherDisplay:10.37,2013-07-07 02:45:00,
2013-07-06 22:50:00,76.5,73.3,30.08,West,270,0.0,0.0,90,0.00,BKN,,0.19,WeatherDisplay:10.37,2013-07-07 02:50:00,
2013-07-06 22:55:00,76.5,73.3,30.09,West,270,0.0,0.0,90,0.00,BKN,,0.19,WeatherDisplay:10.37,2013-07-07 02:55:00,
2013-07-06 23:03:00,76.1,73.3,30.09,West,270,0.0,0.0,91,0.00,BKN,,0.19,WeatherDisplay:10.37,2013-07-07 03:03:00,
2013-07-06 23:09:00,75.9,73.1,30.09,West,270,0.0,0.0,91,0.00,BKN,,0.19,WeatherDisplay:10.37,2013-07-07 03:09:00,
2013-07-06 23:17:00,75.4,72.9,30.09,West,270,0.0,0.0,92,0.00,BKN,,0.19,WeatherDisplay:10.37,2013-07-07 03:17:00,
2013-07-06 23:23:00,75.0,72.8,30.09,West,270,0.0,0.0,93,0.00,BKN,,0.19,WeatherDisplay:10.37,2013-07-07 03:23:00,
2013-07-06 23:28:00,74.8,72.6,30.09,West,270,0.0,0.0,93,0.00,BKN,,0.19,WeatherDisplay:10.37,2013-07-07 03:28:00,
2013-07-06 23:33:00,74.7,72.5,30.09,West,270,0.0,0.0,93,0.00,BKN,,0.19,WeatherDisplay:10.37,2013-07-07 03:33:00,
2013-07-06 23:38:00,74.7,72.5,30.09,West,270,0.0,0.0,93,0.00,BKN,,0.19,WeatherDisplay:10.37,2013-07-07 03:38:00,
2013-07-06 23:43:00,74.3,72.5,30.10,West,270,0.0,0.0,94,0.00,BKN,,0.19,WeatherDisplay:10.37,2013-07-07 03:43:00,
2013-07-06 23:49:00,73.9,72.1,30.10,West,270,0.0,0.0,94,0.00,BKN,,0.19,WeatherDisplay:10.37,2013-07-07 03:49:00,
2013-07-06 23:54:00,73.9,72.1,30.10,West,270,0.0,0.0,94,0.00,BKN,,0.19,WeatherDisplay:10.37,2013-07-07 03:54:00,